createdAt,value
2019-04-18T00:02:41.210Z,5.30
2019-04-18T00:05:48.747Z,6.60
2019-04-18T00:11:11.835Z,5.13
2019-04-18T00:13:40.246Z,5.30
2019-04-18T00:16:10.552Z,5.70
2019-04-18T00:18:39.785Z,4.70
2019-04-18T00:23:59.423Z,5.13
2019-04-18T00:29:13.988Z,5.13
2019-04-18T00:31:42.401Z,5.70
2019-04-18T00:36:47.313Z,5.40
2019-04-18T00:39:14.622Z,4.70
2019-04-18T00:41:46.251Z,4.90
2019-04-18T00:46:49.389Z,4.47
2019-04-18T00:51:52.432Z,5.63
2019-04-18T00:54:40.157Z,5.00
2019-04-18T00:57:13.322Z,5.10
2019-04-18T00:59:38.697Z,4.67
2019-04-18T01:02:26.213Z,4.53
2019-04-18T01:04:54.624Z,4.80
2019-04-18T01:07:42.176Z,4.60
2019-04-18T01:10:50.494Z,5.43
2019-04-18T01:13:39.960Z,4.60
2019-04-18T01:16:08.304Z,4.90
2019-04-18T01:18:36.691Z,4.70
2019-04-18T01:21:44.996Z,4.03
2019-04-18T01:33:03.201Z,3.60
2019-04-18T01:35:27.711Z,4.30
2019-04-18T01:40:43.552Z,4.07
2019-04-18T01:43:34.029Z,4.40
2019-04-18T01:46:39.802Z,4.60
2019-04-18T01:49:48.112Z,3.60
2019-04-18T01:52:16.507Z,3.53
2019-04-18T01:54:45.476Z,3.90
2019-04-18T01:57:15.036Z,4.10
2019-04-18T02:00:23.349Z,4.17
2019-04-18T02:02:51.744Z,4.30
2019-04-18T02:06:02.599Z,3.70
2019-04-18T02:08:52.006Z,3.53
2019-04-18T02:11:38.999Z,3.47
2019-04-18T02:14:08.973Z,3.60
2019-04-18T02:19:27.536Z,3.43
2019-04-18T02:21:54.932Z,4.27
2019-04-18T02:24:25.787Z,3.60
2019-04-18T02:26:53.451Z,3.90
2019-04-18T02:29:42.636Z,4.40
2019-04-18T02:32:11.090Z,3.23
2019-04-18T02:34:58.734Z,4.00
2019-04-18T02:37:27.128Z,3.80
2019-04-18T02:40:14.651Z,3.27
2019-04-18T02:43:02.303Z,3.40
2019-04-18T02:46:13.360Z,4.03
2019-04-18T02:48:40.760Z,3.90
2019-04-18T02:51:28.414Z,3.53
2019-04-18T02:54:15.948Z,3.10
2019-04-18T02:59:52.550Z,4.10
2019-04-18T03:05:49.933Z,3.73
2019-04-18T03:08:18.327Z,4.27
2019-04-18T03:11:06.112Z,3.73
2019-04-18T03:13:36.429Z,3.10
2019-04-18T03:16:08.791Z,3.20
2019-04-18T03:18:36.457Z,3.43
2019-04-18T03:21:06.619Z,3.30
2019-04-18T03:23:39.155Z,3.60
2019-04-18T03:28:42.953Z,3.83
2019-04-18T03:31:31.682Z,3.30
2019-04-18T03:34:19.329Z,3.43
2019-04-18T03:37:27.700Z,3.50
2019-04-18T03:39:56.106Z,2.77
2019-04-18T03:42:24.501Z,2.93
2019-04-18T03:44:57.490Z,2.90
2019-04-18T03:47:30.571Z,3.40
2019-04-18T03:49:59.804Z,3.20
2019-04-18T03:52:47.320Z,3.03
2019-04-18T03:55:17.510Z,3.00
2019-04-18T03:57:45.835Z,3.37
2019-04-18T04:00:57.407Z,3.00
2019-04-18T04:03:24.284Z,3.97
2019-04-18T04:06:04.201Z,3.53
2019-04-18T04:08:41.930Z,3.27
2019-04-18T04:11:10.343Z,3.53
2019-04-18T04:13:38.755Z,3.30
2019-04-18T04:16:26.475Z,3.47
2019-04-18T04:21:43.956Z,3.90
2019-04-18T04:24:31.609Z,3.00
2019-04-18T04:27:20.906Z,3.77
2019-04-18T04:29:49.378Z,3.97
2019-04-18T04:34:51.704Z,3.27
2019-04-18T04:37:20.106Z,2.97
2019-04-18T04:39:48.504Z,3.80
2019-04-18T04:42:20.537Z,2.90
2019-04-18T04:44:47.050Z,2.97
2019-04-18T04:47:55.670Z,3.27
2019-04-18T04:51:04.172Z,3.60
2019-04-18T04:54:12.609Z,2.83
2019-04-18T04:59:39.282Z,2.80
2019-04-18T05:02:28.113Z,3.37
2019-04-18T05:07:43.957Z,3.60
2019-04-18T05:10:31.610Z,3.30
2019-04-18T05:13:01.923Z,3.00
2019-04-18T05:15:50.086Z,4.03
2019-04-18T05:18:19.521Z,3.67
2019-04-18T05:21:07.041Z,3.30
2019-04-18T05:23:54.690Z,3.47
2019-04-18T05:29:16.420Z,3.80
2019-04-18T05:31:46.293Z,2.90
2019-04-18T05:34:33.808Z,3.10
2019-04-18T05:39:36.141Z,3.93
2019-04-18T05:42:04.550Z,3.73
2019-04-18T05:44:36.836Z,2.90
2019-04-18T05:47:22.198Z,2.80
2019-04-18T05:50:13.360Z,4.07
2019-04-18T05:57:50.343Z,3.40
2019-04-18T06:00:58.697Z,4.27
2019-04-18T06:03:47.910Z,3.50
2019-04-18T06:06:35.436Z,3.70
2019-04-18T06:09:23.087Z,3.80
2019-04-18T06:12:32.087Z,3.30
2019-04-18T06:15:38.444Z,3.83
2019-04-18T06:18:26.065Z,3.90
2019-04-18T06:20:54.538Z,3.97
2019-04-18T06:31:30.171Z,4.47
2019-04-18T06:37:07.103Z,4.73
2019-04-18T06:39:37.029Z,4.03
2019-04-18T06:42:48.910Z,4.40
2019-04-18T06:45:55.392Z,3.90
2019-04-18T06:48:23.801Z,4.60
2019-04-18T06:50:56.858Z,4.40
2019-04-18T06:56:18.600Z,4.10
2019-04-18T06:58:49.536Z,4.37
2019-04-18T07:01:36.355Z,4.13
2019-04-18T07:04:44.678Z,4.30
2019-04-18T07:07:17.562Z,4.60
2019-04-18T07:10:21.670Z,4.30
2019-04-18T07:15:44.682Z,5.10
2019-04-18T07:18:13.104Z,4.70
2019-04-18T07:21:21.168Z,4.80
2019-04-18T07:23:50.010Z,4.30
2019-04-18T07:26:18.408Z,4.13
2019-04-18T07:29:06.073Z,5.50
2019-04-18T07:31:53.727Z,4.77
2019-04-18T07:34:22.143Z,4.90
2019-04-18T07:36:50.541Z,5.07
2019-04-18T07:39:38.977Z,4.50
2019-04-18T07:42:26.631Z,4.53
2019-04-18T07:44:55.029Z,4.63
2019-04-18T07:47:42.558Z,5.50
2019-04-18T07:50:50.871Z,4.70
2019-04-18T07:53:21.406Z,5.03
2019-04-18T07:55:49.407Z,5.30
2019-04-18T07:58:36.934Z,5.53
2019-04-18T08:01:45.246Z,5.50
2019-04-18T08:04:16.298Z,5.77
2019-04-18T08:06:43.773Z,5.20
2019-04-18T08:09:12.606Z,5.93
2019-04-18T08:12:01.454Z,5.97
2019-04-18T08:14:29.865Z,6.20
2019-04-18T08:17:19.147Z,6.13
2019-04-18T08:19:47.512Z,5.70
2019-04-18T08:25:45.491Z,6.00
2019-04-18T08:30:46.067Z,6.17
2019-04-18T08:33:14.463Z,6.27
2019-04-18T08:36:05.744Z,7.00
2019-04-18T08:38:51.254Z,6.23
2019-04-18T08:41:38.767Z,6.20
2019-04-18T08:44:26.305Z,7.13
2019-04-18T08:52:38.452Z,6.90
2019-04-18T08:55:46.804Z,7.00
2019-04-18T08:58:34.605Z,6.40
2019-04-18T09:01:03.005Z,6.93
2019-04-18T09:03:31.852Z,7.37
2019-04-18T09:06:02.062Z,6.60
2019-04-18T09:08:52.763Z,7.47
2019-04-18T09:17:03.737Z,6.73
2019-04-18T09:20:08.885Z,6.30
2019-04-18T09:22:28.510Z,6.97
2019-04-18T09:24:53.643Z,7.00
2019-04-18T09:27:23.947Z,5.93
2019-04-18T09:29:54.659Z,7.07
2019-04-18T09:33:03.503Z,7.10
2019-04-18T09:35:45.635Z,6.87
2019-04-18T09:38:36.777Z,6.57
2019-04-18T09:41:23.164Z,6.00
2019-04-18T09:44:16.320Z,5.90
2019-04-18T09:47:00.188Z,6.20
2019-04-18T09:49:28.606Z,6.40
2019-04-18T09:52:16.269Z,6.63
2019-04-18T09:55:03.931Z,6.80
2019-04-18T09:57:51.580Z,6.00
2019-04-18T10:00:39.422Z,7.10
2019-04-18T10:06:14.588Z,6.17
2019-04-18T10:09:02.346Z,7.30
2019-04-18T10:11:31.285Z,7.73
2019-04-18T10:14:20.000Z,7.27
2019-04-18T10:17:13.183Z,6.63
2019-04-18T10:22:35.769Z,6.40
2019-04-18T10:25:44.091Z,7.60
2019-04-18T10:28:52.406Z,6.90
2019-04-18T10:34:17.191Z,6.57
2019-04-18T10:39:38.733Z,7.53
2019-04-18T10:42:26.381Z,6.63
2019-04-18T10:44:54.801Z,6.27
2019-04-18T10:50:31.276Z,5.50
2019-04-18T10:52:59.673Z,6.37
2019-04-18T10:55:29.525Z,7.27
2019-04-18T10:57:58.200Z,6.40
2019-04-18T11:01:06.523Z,6.03
2019-04-18T11:06:41.494Z,6.57
2019-04-18T11:09:49.814Z,6.90
2019-04-18T11:12:18.298Z,6.10
2019-04-18T11:17:34.470Z,6.67
2019-04-18T11:22:57.503Z,6.30
2019-04-18T11:25:45.156Z,5.90
2019-04-18T11:28:13.563Z,6.47
2019-04-18T11:31:01.095Z,6.37
2019-04-18T11:33:48.864Z,4.80
2019-04-18T11:36:17.274Z,6.03
2019-04-18T11:38:47.611Z,5.60
2019-04-18T11:41:16.034Z,6.13
2019-04-18T11:43:47.779Z,5.23
2019-04-18T11:46:16.061Z,5.70
2019-04-18T11:49:03.995Z,6.30
2019-04-18T11:51:51.587Z,5.10
2019-04-18T11:54:39.252Z,5.30
2019-04-18T11:57:07.881Z,6.10
2019-04-18T11:59:56.059Z,5.33
2019-04-18T12:02:43.522Z,5.70
2019-04-18T12:08:06.839Z,5.70
2019-04-18T12:10:55.833Z,5.50
2019-04-18T12:13:24.233Z,5.10
2019-04-18T12:15:52.745Z,5.77
2019-04-18T12:21:15.440Z,5.67
2019-04-18T12:23:43.842Z,5.07
2019-04-18T12:28:51.152Z,5.33
2019-04-18T12:31:30.729Z,5.07
2019-04-18T12:33:49.894Z,5.73
2019-04-18T12:36:37.543Z,5.00
2019-04-18T12:39:45.857Z,5.33
2019-04-18T12:42:14.275Z,4.87
2019-04-18T12:45:05.094Z,5.30
2019-04-18T12:47:31.969Z,4.93
2019-04-18T12:52:47.840Z,4.93
2019-04-18T12:55:35.490Z,4.30
2019-04-18T12:58:23.093Z,5.03
2019-04-18T13:01:46.189Z,4.97
2019-04-18T13:06:50.714Z,4.87
2019-04-18T13:09:38.234Z,5.20
2019-04-18T13:12:45.094Z,5.03
2019-04-18T13:15:53.398Z,4.93
2019-04-18T13:18:41.126Z,6.20
2019-04-18T13:24:43.650Z,6.23
2019-04-18T13:27:31.300Z,6.30
2019-04-18T13:30:18.832Z,6.97
2019-04-18T13:33:06.506Z,5.57
2019-04-18T13:35:54.140Z,5.27
2019-04-18T13:38:41.796Z,4.83
2019-04-18T13:41:50.114Z,4.30
2019-04-18T13:44:18.516Z,4.30
2019-04-18T13:47:06.431Z,5.33
2019-04-18T13:52:22.268Z,4.50
2019-04-18T13:55:09.917Z,5.03
2019-04-18T14:00:52.540Z,3.93
2019-04-18T14:03:20.956Z,4.60
2019-04-18T14:08:36.816Z,3.93
2019-04-18T14:19:02.546Z,3.60
2019-04-18T14:21:50.178Z,3.40
2019-04-18T14:24:37.826Z,3.50
2019-04-18T14:27:25.549Z,4.17
2019-04-18T14:29:54.037Z,4.00
2019-04-18T14:32:33.749Z,3.73
2019-04-18T14:34:52.564Z,4.13
2019-04-18T14:37:40.207Z,4.10
2019-04-18T14:40:48.521Z,3.30
2019-04-18T14:43:36.181Z,4.00
2019-04-18T14:46:44.490Z,3.73
2019-04-18T14:52:07.731Z,4.20
2019-04-18T14:54:55.382Z,4.80
2019-04-18T14:57:23.785Z,5.00
2019-04-18T15:03:06.258Z,4.43
2019-04-18T15:06:14.573Z,3.93
2019-04-18T15:11:37.755Z,4.40
2019-04-18T15:14:25.245Z,4.17
2019-04-18T15:16:53.648Z,4.47
2019-04-18T15:19:41.406Z,4.17
2019-04-18T15:22:29.055Z,5.33
2019-04-18T15:24:57.460Z,4.20
2019-04-18T15:27:25.860Z,4.23
2019-04-18T15:29:54.293Z,4.77
2019-04-18T15:32:23.411Z,5.30
2019-04-18T15:35:12.084Z,4.50
2019-04-18T15:37:40.485Z,3.67
2019-04-18T15:40:48.887Z,4.20
2019-04-18T15:43:17.340Z,3.97
2019-04-18T15:48:40.814Z,4.13
2019-04-18T15:53:43.702Z,5.37
2019-04-18T15:56:12.114Z,4.00
2019-04-18T15:58:40.512Z,4.37
2019-04-18T16:01:28.175Z,4.63
2019-04-18T16:03:56.603Z,4.20
2019-04-18T16:06:26.701Z,4.30
2019-04-18T16:12:22.463Z,4.57
2019-04-18T16:15:29.470Z,4.30
2019-04-18T16:18:17.117Z,4.50
2019-04-18T16:21:25.435Z,4.67
2019-04-18T16:29:14.805Z,4.40
2019-04-18T16:37:25.079Z,4.60
2019-04-18T16:39:53.501Z,4.60
2019-04-18T16:42:21.975Z,4.00
2019-04-18T16:44:50.312Z,4.60
2019-04-18T16:50:46.143Z,4.00
2019-04-18T16:53:54.454Z,4.13
2019-04-18T16:56:42.108Z,4.23
2019-04-18T16:59:29.759Z,4.40
2019-04-18T17:01:58.168Z,4.93
2019-04-18T17:04:26.570Z,4.43
2019-04-18T17:13:03.796Z,5.70
2019-04-18T17:16:12.108Z,5.27
2019-04-18T17:18:40.522Z,6.00
2019-04-18T17:21:28.172Z,5.10
2019-04-18T17:27:03.141Z,5.40
2019-04-18T17:29:31.555Z,5.47
2019-04-18T17:32:19.083Z,5.13
2019-04-18T17:34:55.369Z,5.70
2019-04-18T17:37:31.357Z,5.40
2019-04-18T17:42:36.429Z,5.20
2019-04-18T17:45:46.039Z,4.90
2019-04-18T17:48:35.374Z,4.57
2019-04-18T17:51:55.092Z,4.70
2019-04-18T17:54:33.206Z,5.00
2019-04-18T17:57:07.068Z,4.77
2019-04-18T17:59:55.118Z,5.10
2019-04-18T18:02:43.035Z,4.57
2019-04-18T18:05:32.857Z,4.60
2019-04-18T18:08:06.707Z,4.30
2019-04-18T18:13:45.324Z,4.70
2019-04-18T18:17:02.136Z,3.80
2019-04-18T18:19:42.966Z,4.30
2019-04-18T18:25:45.931Z,4.20
2019-04-18T18:28:18.398Z,4.03
2019-04-18T18:31:09.113Z,4.17
2019-04-18T18:33:33.720Z,4.53
2019-04-18T18:39:40.038Z,4.20
2019-04-18T18:42:30.937Z,4.30
2019-04-18T18:44:58.089Z,3.90
2019-04-18T18:47:49.785Z,3.53
2019-04-18T18:50:54.130Z,3.70
2019-04-18T18:53:23.634Z,4.30
2019-04-18T19:01:34.747Z,3.50
2019-04-18T19:07:23.169Z,3.10
2019-04-18T19:09:54.202Z,5.03
2019-04-18T19:12:54.879Z,4.00
2019-04-18T19:15:58.484Z,3.73
2019-04-18T19:18:12.445Z,2.93
2019-04-18T19:21:02.952Z,3.90
2019-04-18T19:23:35.484Z,3.80
2019-04-18T19:28:58.082Z,4.27
2019-04-18T19:31:21.328Z,4.03
2019-04-18T19:33:48.629Z,3.57
2019-04-18T19:40:13.314Z,4.40
2019-04-18T19:42:18.600Z,3.97
2019-04-18T19:47:32.071Z,4.77
2019-04-18T19:50:01.123Z,4.80
2019-04-18T19:52:35.790Z,3.67
2019-04-18T19:55:01.556Z,3.60
2019-04-18T19:57:30.861Z,3.77
2019-04-18T20:00:18.542Z,4.00
2019-04-18T20:03:07.169Z,3.80
2019-04-18T20:06:22.026Z,3.77
2019-04-18T20:09:03.574Z,4.10
2019-04-18T20:11:51.431Z,4.47
2019-04-18T20:14:44.527Z,3.40
2019-04-18T20:17:16.749Z,3.77
2019-04-18T20:19:44.325Z,3.87
2019-04-18T20:22:13.752Z,3.70
2019-04-18T20:24:43.857Z,3.53
2019-04-18T20:27:19.416Z,3.70
2019-04-18T20:29:45.769Z,3.43
2019-04-18T20:32:36.474Z,3.87
2019-04-18T20:35:02.664Z,3.50
2019-04-18T20:37:40.053Z,3.47
2019-04-18T20:42:49.302Z,3.37
2019-04-18T20:48:14.860Z,3.10
2019-04-18T20:50:49.343Z,3.67
2019-04-18T20:54:08.464Z,3.63
2019-04-18T20:56:20.010Z,3.73
2019-04-18T20:59:13.563Z,3.10
2019-04-18T21:01:37.934Z,3.77
2019-04-18T21:04:11.607Z,3.77
2019-04-18T21:06:45.581Z,3.77
2019-04-18T21:09:20.914Z,2.90
2019-04-18T21:11:39.852Z,3.53
2019-04-18T21:14:08.448Z,3.50
2019-04-18T21:16:40.709Z,3.10
2019-04-18T21:19:06.985Z,3.27
2019-04-18T21:21:35.397Z,3.13
2019-04-18T21:24:04.207Z,3.43
2019-04-18T21:26:33.940Z,3.43
2019-04-18T21:29:05.735Z,3.23
2019-04-18T21:31:32.577Z,2.93
2019-04-18T21:34:06.101Z,3.07
2019-04-18T21:36:32.086Z,3.10
2019-04-18T21:39:04.126Z,3.40
2019-04-18T21:41:31.857Z,2.67
2019-04-18T21:44:05.632Z,2.83
2019-04-18T21:46:35.454Z,2.87
2019-04-18T21:49:02.889Z,3.30
2019-04-18T21:51:35.856Z,3.10
2019-04-18T21:54:04.578Z,2.80
2019-04-18T21:56:31.053Z,3.93
2019-04-18T21:59:07.689Z,2.77
2019-04-18T22:01:37.787Z,3.13
2019-04-18T22:04:07.174Z,2.67
2019-04-18T22:06:43.043Z,3.27
2019-04-18T22:09:11.605Z,2.80
2019-04-18T22:11:44.547Z,2.53
2019-04-18T22:14:11.065Z,2.73
2019-04-18T22:16:39.839Z,3.80
2019-04-18T22:19:08.352Z,3.30
2019-04-18T22:21:39.969Z,2.60
2019-04-18T22:24:09.128Z,2.57
2019-04-18T22:26:38.278Z,2.83
2019-04-18T22:29:09.653Z,2.83
2019-04-18T22:31:37.481Z,3.00
2019-04-18T22:34:14.168Z,2.73
2019-04-18T22:36:37.923Z,3.60
2019-04-18T22:39:16.159Z,3.40
2019-04-18T22:41:42.397Z,3.60
2019-04-18T22:44:15.377Z,2.80
2019-04-18T22:46:41.792Z,3.03
2019-04-18T22:49:16.024Z,2.87
2019-04-18T22:51:46.061Z,3.00
2019-04-18T22:54:11.388Z,2.50
2019-04-18T22:56:46.699Z,2.90
2019-04-18T22:59:15.871Z,2.70
2019-04-18T23:01:40.339Z,2.90
2019-04-18T23:04:10.800Z,3.00
2019-04-18T23:06:40.476Z,2.77
2019-04-18T23:09:13.604Z,2.90
2019-04-18T23:11:40.901Z,2.90
2019-04-18T23:14:13.349Z,2.93
2019-04-18T23:16:39.433Z,3.53
2019-04-18T23:19:10.565Z,2.70
2019-04-18T23:21:43.857Z,2.90
2019-04-18T23:24:10.654Z,3.10
2019-04-18T23:26:41.243Z,3.60
2019-04-18T23:29:11.000Z,3.97
2019-04-18T23:31:47.190Z,3.20
2019-04-18T23:34:10.087Z,3.03
2019-04-18T23:36:43.562Z,3.50
2019-04-18T23:39:18.258Z,3.30
2019-04-18T23:41:40.515Z,3.40
2019-04-18T23:44:15.468Z,3.30
2019-04-18T23:46:40.480Z,3.80
2019-04-18T23:49:17.366Z,3.47
2019-04-18T23:51:42.734Z,4.43
2019-04-18T23:54:12.469Z,3.50
2019-04-18T23:56:42.993Z,3.57
2019-04-18T23:59:10.800Z,3.97
